Apison, Tennessee
Current Conditions -  °F | °C
As of 2:53 PM on Tuesday 25 Nov 2014 (Local Time) from KCHA Reporting Station
Broken Clouds Broken Clouds  
Wind Chill: 59°   Ceiling: 17000
Heat Index: 59°   Visibility: 10mi
Dew Point: 29°   Wind: 0mph
Humidity: 32%   Direction: NA
Pressure: 30.05"   Gusts: NA
Location:  35.02°N, 85.02°W
Report Text: KCHA 251953Z 00000KT 10SM BKN170 BKN250 15/M02 A3005 RMK AO2 SLP174 T01501017
Loading
Personal Weather Stations






























Interactive Weather Map New forecast layout! Learn more

10-Day Weather Forecast

Advertisements
Track Severe Weather on mobile